Barroso, Brazil
Current Conditions -  °F | °C
As of 12:00 PM on Monday 22 Dec 2014 (Local Time) from SBBQ Reporting Station
Broken Clouds Broken Clouds  
Wind Chill: 77°   Ceiling: 2500
Heat Index: 79°   Visibility: 6mi
Dew Point: 64°   Wind: 12mph
Humidity: 65%   Direction: 310°NW
Pressure: 30.12"   Gusts: NA
Location:  21.19°S, 43.98°W
Report Text: SBBQ 221400Z 31010KT 9999 BKN025 25/18 Q1020
Loading
Personal Weather Stations






























Interactive Weather Map New forecast layout! Learn more

10-Day Weather Forecast

Advertisements
Track Severe Weather on mobile